Time;durP1;ratioP1;P1;durP2;ratioP2;P2;SDS_P1;SDS_P2;PMS_P1;PMS_P2;Temp;Humidity;BMP_temperature;BMP_pressure;BME280_temperature;BME280_humidity;BME280_pressure;Samples;Min_cycle;Max_cycle;Signal;HPM_P1;HPM_P2
2021/07/19 00:01:33;;;;;;;9.27;6.50;;;18.30;99.90;;;;;;6159561;23;20450;-78
2021/07/19 00:04:02;;;;;;;13.80;6.70;;;18.30;99.90;;;;;;6160081;23;20485;-78
2021/07/19 00:06:30;;;;;;;8.90;6.40;;;18.30;99.90;;;;;;6159626;23;20503;-77
2021/07/19 00:08:58;;;;;;;14.03;7.20;;;18.30;99.90;;;;;;6159721;23;20455;-77
2021/07/19 00:11:29;;;;;;;8.70;6.10;;;18.20;99.90;;;;;;6159582;23;20946;-78
2021/07/19 00:13:57;;;;;;;9.93;6.53;;;18.20;99.90;;;;;;6196243;23;20487;-78
2021/07/19 00:16:26;;;;;;;7.43;6.60;;;18.20;99.90;;;;;;6159915;23;20795;-78
2021/07/19 00:18:55;;;;;;;9.73;6.10;;;18.20;99.90;;;;;;6159752;23;20420;-77
2021/07/19 00:21:24;;;;;;;9.70;6.90;;;18.20;99.90;;;;;;6195795;23;20436;-78
2021/07/19 00:23:52;;;;;;;7.67;5.37;;;18.20;99.90;;;;;;6159878;23;20416;-78
2021/07/19 00:26:21;;;;;;;10.93;6.77;;;18.10;99.90;;;;;;6159532;23;20511;-77
2021/07/19 00:28:49;;;;;;;8.40;6.87;;;18.10;99.90;;;;;;6159341;23;20454;-77
2021/07/19 00:31:20;;;;;;;10.57;6.67;;;18.10;99.90;;;;;;6159372;23;20471;-78
2021/07/19 00:33:49;;;;;;;15.50;7.30;;;18.10;99.90;;;;;;6159855;23;20421;-78
2021/07/19 00:36:18;;;;;;;8.80;5.57;;;18.10;99.90;;;;;;6196357;23;20168;-78
2021/07/19 00:38:48;;;;;;;10.53;6.40;;;18.00;99.90;;;;;;6159551;23;20510;-78
2021/07/19 00:41:16;;;;;;;11.73;6.57;;;18.00;99.90;;;;;;6159228;23;20451;-78
2021/07/19 00:43:44;;;;;;;10.80;6.70;;;18.00;99.90;;;;;;6158794;23;20908;-78
2021/07/19 00:46:13;;;;;;;9.60;6.60;;;18.00;99.90;;;;;;6159515;23;20251;-78
2021/07/19 00:48:42;;;;;;;8.23;7.00;;;17.90;99.90;;;;;;6185674;23;20416;-77
2021/07/19 00:51:13;;;;;;;9.27;6.10;;;17.90;99.90;;;;;;6159742;23;21014;-78
2021/07/19 00:53:42;;;;;;;9.27;5.73;;;17.90;99.90;;;;;;6159210;23;20905;-78
2021/07/19 00:56:11;;;;;;;11.00;6.03;;;17.80;99.90;;;;;;6159306;23;20486;-78
2021/07/19 00:58:42;;;;;;;9.17;6.10;;;17.80;99.90;;;;;;6160012;23;20467;-78
2021/07/19 01:01:12;;;;;;;13.90;6.53;;;17.80;99.90;;;;;;6159334;23;20448;-77
2021/07/19 01:03:42;;;;;;;8.97;5.60;;;17.80;99.90;;;;;;6159499;23;20423;-78
2021/07/19 01:06:11;;;;;;;9.60;6.80;;;17.80;99.90;;;;;;6160283;23;20444;-78
2021/07/19 01:08:44;;;;;;;9.03;6.23;;;17.70;99.90;;;;;;6159641;23;20431;-78
2021/07/19 01:11:13;;;;;;;10.97;6.13;;;17.70;99.90;;;;;;6159240;23;20864;-78
2021/07/19 01:13:41;;;;;;;8.80;6.60;;;17.60;99.90;;;;;;6159493;23;20427;-78
2021/07/19 01:16:10;;;;;;;8.87;6.53;;;17.60;99.90;;;;;;6159331;23;20394;-78
2021/07/19 01:18:38;;;;;;;9.70;6.10;;;17.60;99.90;;;;;;6196474;23;20400;-78
2021/07/19 01:21:34;;;;;;;6.87;5.80;;;17.60;99.90;;;;;;6195790;23;20431;-77
2021/07/19 01:24:14;;;;;;;10.83;6.37;;;17.60;99.90;;;;;;6159457;23;20420;-78
2021/07/19 01:27:05;;;;;;;9.93;6.27;;;17.50;99.90;;;;;;6159546;23;20419;-78
2021/07/19 01:29:38;;;;;;;9.13;6.30;;;17.50;99.90;;;;;;6159391;23;20736;-78
2021/07/19 01:32:09;;;;;;;7.67;6.37;;;17.40;99.90;;;;;;6159333;23;20435;-78
2021/07/19 01:34:40;;;;;;;11.50;6.20;;;17.40;99.90;;;;;;6159880;23;20387;-78
2021/07/19 01:37:11;;;;;;;12.43;6.57;;;17.40;99.90;;;;;;6159556;23;20584;-78
2021/07/19 01:40:08;;;;;;;8.03;6.20;;;17.40;99.90;;;;;;6180610;23;20431;-78
2021/07/19 01:42:37;;;;;;;10.50;6.97;;;17.30;99.90;;;;;;6160124;23;20392;-78
2021/07/19 01:45:10;;;;;;;12.77;6.30;;;17.20;99.90;;;;;;6162108;23;20743;-78
2021/07/19 01:47:41;;;;;;;8.52;6.07;;;17.20;99.90;;;;;;6160651;23;20426;-78
2021/07/19 01:50:12;;;;;;;9.10;6.40;;;17.20;99.90;;;;;;6161024;23;20199;-78
2021/07/19 01:53:00;;;;;;;8.37;6.33;;;17.20;99.90;;;;;;6198098;23;20479;-78
2021/07/19 01:55:35;;;;;;;10.20;5.90;;;17.10;99.90;;;;;;6162223;23;20477;-78
2021/07/19 01:58:07;;;;;;;8.77;5.70;;;17.10;99.90;;;;;;6161407;23;20393;-78
2021/07/19 02:00:41;;;;;;;9.43;5.60;;;17.00;99.90;;;;;;6160692;23;20446;-78
2021/07/19 02:03:12;;;;;;;11.90;6.50;;;17.00;99.90;;;;;;6197803;23;20388;-78
2021/07/19 02:05:48;;;;;;;13.50;6.43;;;17.00;99.90;;;;;;6161382;23;20477;-78
2021/07/19 02:08:21;;;;;;;10.43;6.53;;;16.90;99.90;;;;;;6161076;23;20513;-78
2021/07/19 02:11:05;;;;;;;8.20;5.93;;;16.90;99.90;;;;;;6161934;23;20877;-79
2021/07/19 02:13:38;;;;;;;8.63;6.83;;;16.90;99.90;;;;;;6162696;23;20447;-79
2021/07/19 02:16:09;;;;;;;10.60;7.73;;;16.80;99.90;;;;;;6162358;23;20386;-79
2021/07/19 02:18:40;;;;;;;6.70;6.10;;;16.80;99.90;;;;;;6163582;23;20412;-79
2021/07/19 02:21:10;;;;;;;6.80;6.10;;;16.80;99.90;;;;;;6163616;23;20442;-79
2021/07/19 02:23:58;;;;;;;10.80;6.03;;;16.80;99.90;;;;;;6189011;23;20411;-79
2021/07/19 02:26:53;;;;;;;8.07;5.50;;;16.70;99.90;;;;;;6182216;23;20411;-79
2021/07/19 02:29:22;;;;;;;8.33;5.70;;;16.70;99.90;;;;;;6162851;23;20791;-79
2021/07/19 02:31:55;;;;;;;8.20;5.60;;;16.70;99.90;;;;;;6162035;23;20463;-79
2021/07/19 02:34:24;;;;;;;10.43;5.77;;;16.70;99.90;;;;;;6161477;23;20893;-77
2021/07/19 02:36:55;;;;;;;7.50;6.40;;;16.70;99.90;;;;;;6162025;23;20382;-78
2021/07/19 02:39:25;;;;;;;10.23;5.90;;;16.70;99.90;;;;;;6160808;23;20415;-78
2021/07/19 02:41:55;;;;;;;9.90;7.47;;;16.70;99.90;;;;;;6160556;23;20439;-78
2021/07/19 02:44:25;;;;;;;10.20;5.90;;;16.60;99.90;;;;;;6197448;23;20376;-78
2021/07/19 02:47:09;;;;;;;9.52;6.40;;;16.60;99.90;;;;;;6159099;23;20415;-78
2021/07/19 02:49:40;;;;;;;8.30;6.90;;;16.70;99.90;;;;;;6161094;23;20161;-78
2021/07/19 02:52:08;;;;;;;8.87;5.93;;;16.70;99.90;;;;;;6160133;23;20414;-78
2021/07/19 02:54:40;;;;;;;9.70;6.00;;;16.60;99.90;;;;;;6159667;23;20505;-78
2021/07/19 02:57:12;;;;;;;11.03;7.00;;;16.60;99.90;;;;;;6198263;23;20207;-78
2021/07/19 02:59:44;;;;;;;10.67;6.17;;;16.60;99.90;;;;;;6162559;23;20413;-78
2021/07/19 03:02:17;;;;;;;8.87;5.87;;;16.60;99.90;;;;;;6161946;23;20414;-79
2021/07/19 03:04:47;;;;;;;7.67;5.20;;;16.60;99.90;;;;;;6161451;23;20916;-78
2021/07/19 03:07:18;;;;;;;9.80;5.73;;;16.60;99.90;;;;;;6197815;23;20450;-79
2021/07/19 03:09:54;;;;;;;9.97;5.60;;;16.60;99.90;;;;;;6161922;23;20434;-79
2021/07/19 03:12:24;;;;;;;9.93;5.70;;;16.60;99.90;;;;;;6163243;23;20391;-78
2021/07/19 03:14:54;;;;;;;13.50;5.90;;;16.50;99.90;;;;;;6163081;23;20481;-79
2021/07/19 03:17:26;;;;;;;10.97;7.00;;;16.50;99.90;;;;;;6162025;23;20416;-79
2021/07/19 03:20:00;;;;;;;7.90;5.37;;;16.50;99.90;;;;;;6161968;23;20420;-79
2021/07/19 03:22:31;;;;;;;9.17;6.00;;;16.50;99.90;;;;;;6162592;23;20445;-79
2021/07/19 03:25:23;;;;;;;7.77;5.50;;;16.50;99.90;;;;;;6187591;23;20422;-78
2021/07/19 03:27:52;;;;;;;9.43;5.70;;;16.50;99.90;;;;;;6162893;23;20419;-79
2021/07/19 03:30:22;;;;;;;8.93;5.20;;;16.50;99.90;;;;;;6161798;23;20430;-78
2021/07/19 03:32:59;;;;;;;9.70;5.50;;;16.50;99.90;;;;;;6162493;23;20406;-78
2021/07/19 03:35:31;;;;;;;6.60;6.00;;;16.50;99.90;;;;;;6162743;23;20426;-79
2021/07/19 03:38:03;;;;;;;9.97;5.90;;;16.50;99.90;;;;;;6162709;23;20423;-79
2021/07/19 03:40:38;;;;;;;11.33;6.23;;;16.50;99.90;;;;;;6163455;23;20443;-79
2021/07/19 03:43:07;;;;;;;6.87;5.73;;;16.50;99.90;;;;;;6162096;23;20417;-79
2021/07/19 03:45:36;;;;;;;12.67;5.53;;;16.60;99.90;;;;;;6162349;23;20428;-79
2021/07/19 03:48:09;;;;;;;5.43;4.80;;;16.60;99.90;;;;;;6163077;23;20387;-79
2021/07/19 03:50:40;;;;;;;7.47;4.87;;;16.60;99.90;;;;;;6162187;23;20413;-79
2021/07/19 03:53:09;;;;;;;11.43;6.03;;;16.60;99.90;;;;;;6161139;23;20401;-79
2021/07/19 03:55:41;;;;;;;6.50;5.00;;;16.60;99.90;;;;;;6161891;23;20399;-78
2021/07/19 03:58:11;;;;;;;7.90;5.78;;;16.60;99.90;;;;;;6160680;23;20405;-78
2021/07/19 04:00:45;;;;;;;9.23;5.50;;;16.60;99.90;;;;;;6198383;23;20188;-78
2021/07/19 04:03:24;;;;;;;8.40;5.43;;;16.60;99.90;;;;;;6187817;23;20434;-78
2021/07/19 04:05:58;;;;;;;8.80;5.43;;;16.60;99.90;;;;;;6161682;23;20413;-79
2021/07/19 04:08:37;;;;;;;7.93;5.78;;;16.60;99.90;;;;;;6160502;23;20885;-79
2021/07/19 04:11:05;;;;;;;8.90;5.93;;;16.70;99.90;;;;;;6161727;23;20195;-78
2021/07/19 04:13:38;;;;;;;10.93;6.10;;;16.70;99.90;;;;;;6161807;23;20415;-79
2021/07/19 04:16:14;;;;;;;10.33;5.30;;;16.70;99.90;;;;;;6162408;23;20462;-79
2021/07/19 04:18:44;;;;;;;8.50;5.97;;;16.70;99.90;;;;;;6162703;23;20423;-79
2021/07/19 04:21:13;;;;;;;12.47;5.87;;;16.70;99.90;;;;;;6188846;23;20408;-79
2021/07/19 04:23:43;;;;;;;12.20;6.30;;;16.70;99.90;;;;;;6161813;23;20779;-79
2021/07/19 04:26:20;;;;;;;12.83;6.60;;;16.70;99.90;;;;;;6161843;23;20453;-79
2021/07/19 04:29:09;;;;;;;9.03;6.00;;;16.70;99.90;;;;;;6161497;23;20416;-79
2021/07/19 04:31:41;;;;;;;10.90;6.67;;;16.70;99.90;;;;;;6162066;23;20926;-79
2021/07/19 04:34:12;;;;;;;7.23;5.90;;;16.70;99.90;;;;;;6161729;23;20416;-79
2021/07/19 04:36:46;;;;;;;8.50;5.23;;;16.70;99.90;;;;;;6162394;23;20894;-79
2021/07/19 04:39:16;;;;;;;7.93;5.40;;;16.80;99.90;;;;;;6162888;23;20426;-81
2021/07/19 04:41:44;;;;;;;12.97;6.40;;;16.80;99.90;;;;;;6162339;23;20409;-79
2021/07/19 04:44:13;;;;;;;8.80;6.00;;;16.80;99.90;;;;;;6162255;23;20899;-79
2021/07/19 04:46:41;;;;;;;9.23;5.63;;;16.80;99.90;;;;;;6198236;23;20403;-79
2021/07/19 04:49:09;;;;;;;7.43;5.87;;;16.80;99.90;;;;;;6162293;23;20510;-79
2021/07/19 04:51:40;;;;;;;7.30;5.60;;;16.80;99.90;;;;;;6161523;23;20453;-79
2021/07/19 04:54:10;;;;;;;7.57;5.57;;;16.80;99.90;;;;;;6162595;23;20355;-79
2021/07/19 04:56:41;;;;;;;6.10;4.90;;;16.90;99.90;;;;;;6161805;23;20440;-79
2021/07/19 04:59:12;;;;;;;6.87;5.77;;;16.90;99.90;;;;;;6161902;23;20393;-79
2021/07/19 05:01:41;;;;;;;7.67;5.20;;;16.90;99.90;;;;;;6161726;23;20414;-79
2021/07/19 05:04:11;;;;;;;10.40;6.13;;;16.90;99.90;;;;;;6198279;23;20406;-79
2021/07/19 05:06:43;;;;;;;7.80;5.10;;;17.00;99.90;;;;;;6161769;23;20440;-79
2021/07/19 05:09:14;;;;;;;6.70;4.83;;;17.00;99.90;;;;;;6161406;23;20910;-78
2021/07/19 05:11:43;;;;;;;5.97;4.70;;;17.00;99.90;;;;;;6161432;23;20461;-79
2021/07/19 05:14:14;;;;;;;9.07;5.53;;;17.00;99.90;;;;;;6161334;23;20429;-79
2021/07/19 05:16:43;;;;;;;8.70;4.80;;;17.00;99.90;;;;;;6161297;23;20430;-79
2021/07/19 05:19:13;;;;;;;9.90;5.40;;;17.00;99.90;;;;;;6197300;23;20375;-79
2021/07/19 05:21:44;;;;;;;9.23;4.70;;;17.00;99.90;;;;;;6161028;23;20790;-78
2021/07/19 05:24:12;;;;;;;6.80;5.27;;;17.00;99.90;;;;;;6161486;23;20265;-78
2021/07/19 05:26:40;;;;;;;8.77;4.57;;;17.10;99.90;;;;;;6161065;23;20449;-78
2021/07/19 05:29:08;;;;;;;5.83;4.07;;;17.10;99.90;;;;;;6160751;23;20886;-78
2021/07/19 05:31:38;;;;;;;5.80;4.40;;;17.00;99.90;;;;;;6160612;23;20980;-78
2021/07/19 05:34:07;;;;;;;6.87;3.90;;;17.10;99.90;;;;;;6197570;23;20798;-78
2021/07/19 05:36:35;;;;;;;8.83;4.33;;;17.10;99.90;;;;;;6161141;23;20425;-78
2021/07/19 05:39:05;;;;;;;8.47;4.50;;;17.10;99.90;;;;;;6160924;23;20494;-79
2021/07/19 05:41:33;;;;;;;5.20;4.70;;;17.20;99.90;;;;;;6161125;23;20839;-77
2021/07/19 05:44:01;;;;;;;9.33;4.00;;;17.20;99.90;;;;;;6195408;23;20914;-77
2021/07/19 05:46:30;;;;;;;7.30;4.37;;;17.20;99.90;;;;;;6160035;23;20412;-78
2021/07/19 05:49:02;;;;;;;6.60;4.13;;;17.20;99.90;;;;;;6159409;23;20418;-78
2021/07/19 05:51:30;;;;;;;8.73;4.83;;;17.20;99.90;;;;;;6158735;23;20417;-78
2021/07/19 05:54:00;;;;;;;7.63;4.07;;;17.30;99.90;;;;;;6159675;23;20390;-78
2021/07/19 05:56:33;;;;;;;5.40;3.47;;;17.30;99.90;;;;;;6159146;23;20416;-78
2021/07/19 05:59:02;;;;;;;7.10;4.23;;;17.40;99.90;;;;;;6159241;23;20415;-78
2021/07/19 06:01:30;;;;;;;7.93;4.50;;;17.40;99.90;;;;;;6196334;23;20522;-78
2021/07/19 06:03:59;;;;;;;4.50;4.10;;;17.50;99.90;;;;;;6161751;23;20443;-78
2021/07/19 06:06:28;;;;;;;6.47;3.30;;;17.50;99.90;;;;;;6196592;23;20423;-78
2021/07/19 06:08:59;;;;;;;6.23;4.00;;;17.60;99.90;;;;;;6159749;23;20427;-77
2021/07/19 06:11:28;;;;;;;6.00;3.60;;;17.60;99.90;;;;;;6160286;23;20810;-78
2021/07/19 06:13:58;;;;;;;5.50;3.10;;;17.70;99.90;;;;;;6159977;23;20391;-78
2021/07/19 06:16:27;;;;;;;4.30;3.90;;;17.70;99.90;;;;;;6187365;23;20435;-78
2021/07/19 06:18:55;;;;;;;4.60;3.90;;;17.70;99.90;;;;;;6161302;23;20428;-78
2021/07/19 06:21:23;;;;;;;5.40;3.77;;;17.80;99.90;;;;;;6187078;23;20427;-78
2021/07/19 06:23:52;;;;;;;6.37;3.50;;;17.80;99.90;;;;;;6160654;23;20444;-78
2021/07/19 06:26:32;;;;;;;7.20;4.10;;;17.80;99.90;;;;;;6159992;23;20877;-78
2021/07/19 06:29:02;;;;;;;5.70;3.73;;;17.90;99.90;;;;;;6161647;23;20427;-78
2021/07/19 06:31:31;;;;;;;6.30;4.37;;;17.90;99.90;;;;;;6161979;23;20482;-78
2021/07/19 06:33:59;;;;;;;8.50;3.50;;;17.90;99.90;;;;;;6162796;23;20474;-78
2021/07/19 06:36:27;;;;;;;6.82;4.40;;;17.90;99.90;;;;;;6162238;23;20439;-78
2021/07/19 06:38:57;;;;;;;7.83;4.60;;;18.00;99.90;;;;;;6162423;23;20169;-78
2021/07/19 06:41:25;;;;;;;5.80;3.93;;;18.00;99.90;;;;;;6161843;23;20451;-79
2021/07/19 06:43:54;;;;;;;5.10;3.53;;;18.10;99.90;;;;;;6161854;23;20436;-78
2021/07/19 06:46:23;;;;;;;4.47;3.80;;;18.20;99.90;;;;;;6162747;23;20779;-79
2021/07/19 06:48:52;;;;;;;6.37;4.27;;;18.20;99.90;;;;;;6188274;23;20413;-78
2021/07/19 06:51:20;;;;;;;5.10;3.50;;;18.30;99.90;;;;;;6188831;23;20432;-78
2021/07/19 06:53:48;;;;;;;4.90;3.50;;;18.40;99.90;;;;;;6162840;23;20451;-79
2021/07/19 06:56:19;;;;;;;10.00;4.43;;;18.60;99.90;;;;;;6162384;23;20492;-78
2021/07/19 06:58:47;;;;;;;5.00;3.83;;;18.80;99.90;;;;;;6198669;23;20404;-78
2021/07/19 07:01:17;;;;;;;6.70;3.90;;;19.00;99.90;;;;;;6199169;23;20592;-78
2021/07/19 07:03:47;;;;;;;5.63;3.77;;;19.20;99.90;;;;;;6189053;23;20926;-78
2021/07/19 07:06:27;;;;;;;6.03;4.00;;;19.40;99.90;;;;;;6162720;23;20440;-79
2021/07/19 07:08:58;;;;;;;6.67;4.67;;;19.40;99.90;;;;;;6161947;23;20428;-78
2021/07/19 07:11:27;;;;;;;5.17;4.50;;;19.40;99.90;;;;;;6161961;23;20439;-78
2021/07/19 07:13:55;;;;;;;7.10;4.90;;;19.30;99.90;;;;;;6188542;23;20413;-78
2021/07/19 07:16:24;;;;;;;9.97;6.10;;;19.40;99.90;;;;;;6162445;23;20439;-78
2021/07/19 07:18:55;;;;;;;7.30;4.80;;;19.40;99.90;;;;;;6162883;23;20791;-78
2021/07/19 07:21:24;;;;;;;7.23;5.43;;;19.40;99.90;;;;;;6162493;23;20444;-78
2021/07/19 07:23:52;;;;;;;6.93;4.70;;;19.50;99.90;;;;;;6199416;23;20463;-78
2021/07/19 07:26:21;;;;;;;7.40;5.10;;;19.60;99.90;;;;;;6162149;23;20887;-78
2021/07/19 07:28:49;;;;;;;5.40;4.43;;;19.60;99.90;;;;;;6162039;23;20420;-78
2021/07/19 07:31:18;;;;;;;9.60;5.20;;;19.70;99.90;;;;;;6161969;23;20486;-78
2021/07/19 07:33:46;;;;;;;6.50;5.00;;;19.70;99.90;;;;;;6188095;23;20416;-78
2021/07/19 07:36:16;;;;;;;8.57;4.97;;;19.70;99.90;;;;;;6161972;23;20439;-78
2021/07/19 07:38:46;;;;;;;5.90;5.30;;;19.60;99.90;;;;;;6162330;23;20924;-79
2021/07/19 07:41:14;;;;;;;8.80;6.33;;;19.60;99.80;;;;;;6159682;23;20414;-78
2021/07/19 07:43:42;;;;;;;9.70;5.47;;;19.60;98.80;;;;;;6160987;23;20770;-78
2021/07/19 07:46:10;;;;;;;4.90;4.17;;;19.70;99.00;;;;;;6161926;23;20451;-78
2021/07/19 07:48:39;;;;;;;5.60;4.50;;;19.90;99.00;;;;;;6161460;23;20447;-78
2021/07/19 07:51:08;;;;;;;6.07;4.77;;;20.10;99.10;;;;;;6198422;23;20403;-79
2021/07/19 07:53:39;;;;;;;6.00;4.57;;;20.40;98.70;;;;;;6165373;23;20423;-80
2021/07/19 07:56:07;;;;;;;5.73;5.10;;;20.40;98.60;;;;;;6166073;23;20419;-80
2021/07/19 07:58:35;;;;;;;4.87;4.37;;;20.40;98.70;;;;;;6192392;23;20456;-80
2021/07/19 08:01:03;;;;;;;5.10;4.00;;;20.30;98.70;;;;;;6165572;23;20439;-80
2021/07/19 08:03:32;;;;;;;5.60;4.00;;;20.30;98.60;;;;;;6191934;23;20412;-80
2021/07/19 08:09:05;;;;;;;4.90;4.50;;;20.20;98.40;;;;;;6187098;23;20427;-74
2021/07/19 08:11:33;;;;;;;7.17;4.50;;;20.10;98.30;;;;;;6174664;23;20903;-76
2021/07/19 08:14:01;;;;;;;5.83;4.83;;;20.10;98.40;;;;;;6130888;23;20420;-76
2021/07/19 08:16:30;;;;;;;4.80;3.97;;;20.20;98.40;;;;;;6167454;23;20871;-76
2021/07/19 08:18:58;;;;;;;6.90;4.20;;;20.30;98.30;;;;;;6167551;23;20409;-75
2021/07/19 08:21:26;;;;;;;6.60;3.87;;;20.50;98.20;;;;;;6131687;23;20465;-75
2021/07/19 08:23:54;;;;;;;7.93;4.10;;;20.60;98.10;;;;;;6167245;23;20440;-75
2021/07/19 08:26:24;;;;;;;4.50;3.83;;;20.80;97.90;;;;;;6131330;23;20437;-75
2021/07/19 08:28:53;;;;;;;4.90;4.40;;;20.80;97.70;;;;;;6131102;23;20413;-75
2021/07/19 08:31:22;;;;;;;4.77;3.60;;;20.80;97.50;;;;;;6131265;23;20433;-75
2021/07/19 08:33:50;;;;;;;4.50;4.10;;;20.70;97.30;;;;;;6157153;23;20788;-75
2021/07/19 08:36:18;;;;;;;6.07;4.20;;;20.70;97.30;;;;;;6131369;23;20504;-75
2021/07/19 08:38:48;;;;;;;4.93;4.43;;;20.60;97.20;;;;;;6157125;23;20492;-75
2021/07/19 08:41:17;;;;;;;5.37;4.87;;;20.70;97.20;;;;;;6166774;23;20471;-75
2021/07/19 08:43:46;;;;;;;5.80;3.90;;;20.70;97.20;;;;;;6131035;23;20427;-75
2021/07/19 08:46:15;;;;;;;6.33;4.30;;;20.70;97.20;;;;;;6167014;23;20429;-75
2021/07/19 08:48:52;;;;;;;7.68;5.20;;;20.80;97.30;;;;;;6167280;23;20456;-75
2021/07/19 08:51:20;;;;;;;5.27;4.10;;;20.90;96.50;;;;;;6166936;23;20648;-75
2021/07/19 08:53:51;;;;;;;6.43;4.63;;;21.10;96.60;;;;;;6166827;23;20408;-75
2021/07/19 08:56:20;;;;;;;5.50;4.30;;;21.20;96.70;;;;;;6130962;23;20413;-75
2021/07/19 08:58:49;;;;;;;6.60;4.30;;;21.30;96.60;;;;;;6166371;23;20885;-75
2021/07/19 09:01:19;;;;;;;7.27;4.60;;;21.40;95.90;;;;;;6156998;23;20271;-75
2021/07/19 09:03:47;;;;;;;4.90;4.10;;;21.50;96.10;;;;;;6130639;23;20416;-75
2021/07/19 09:06:15;;;;;;;5.60;4.10;;;21.50;96.40;;;;;;6166971;23;20461;-75
2021/07/19 09:08:48;;;;;;;3.97;3.57;;;21.60;96.20;;;;;;6166817;23;20488;-76
2021/07/19 09:11:17;;;;;;;4.47;4.07;;;21.70;96.20;;;;;;6166690;23;20420;-75
2021/07/19 09:14:00;;;;;;;5.87;3.53;;;21.70;96.20;;;;;;6166982;23;20484;-75
2021/07/19 09:16:41;;;;;;;5.70;3.80;;;21.80;95.80;;;;;;6131122;23;20510;-76
2021/07/19 09:19:12;;;;;;;4.80;4.30;;;21.70;95.70;;;;;;6157160;23;20400;-75
2021/07/19 09:21:42;;;;;;;5.37;4.03;;;21.60;95.70;;;;;;6130898;23;20492;-76
2021/07/19 09:24:12;;;;;;;6.07;4.83;;;21.60;95.60;;;;;;6131444;23;20444;-76
2021/07/19 09:26:42;;;;;;;4.70;4.30;;;21.50;95.40;;;;;;6131658;23;20404;-75
2021/07/19 09:29:13;;;;;;;5.83;4.33;;;21.40;95.40;;;;;;6167723;23;20439;-75
2021/07/19 09:31:43;;;;;;;6.97;4.53;;;21.30;95.40;;;;;;6130702;23;20534;-75
2021/07/19 09:34:14;;;;;;;5.63;4.57;;;21.30;95.50;;;;;;6166941;23;20468;-75
2021/07/19 09:36:56;;;;;;;5.00;4.33;;;21.30;95.50;;;;;;6167025;23;20417;-76
2021/07/19 09:39:26;;;;;;;6.77;4.00;;;21.30;95.40;;;;;;6166999;23;20464;-75
2021/07/19 09:42:05;;;;;;;6.30;4.40;;;21.20;95.40;;;;;;6129889;23;20471;-74
2021/07/19 09:44:35;;;;;;;6.70;4.57;;;21.20;95.30;;;;;;6129737;23;20516;-75
2021/07/19 09:47:05;;;;;;;5.80;4.63;;;21.20;95.30;;;;;;6156209;23;20401;-75
2021/07/19 09:49:35;;;;;;;6.67;4.13;;;21.20;95.40;;;;;;6129720;23;20413;-75
2021/07/19 09:52:06;;;;;;;5.70;4.10;;;21.10;95.40;;;;;;6155951;23;20818;-76
2021/07/19 09:54:41;;;;;;;5.60;4.53;;;21.20;95.40;;;;;;6129719;23;20531;-75
2021/07/19 09:57:09;;;;;;;5.70;3.93;;;21.20;95.40;;;;;;6128834;23;20483;-75
2021/07/19 09:59:50;;;;;;;4.57;4.13;;;21.20;95.20;;;;;;6129514;23;20883;-75
2021/07/19 10:02:37;;;;;;;5.83;4.33;;;21.30;95.40;;;;;;6129747;23;20413;-75
2021/07/19 10:05:08;;;;;;;4.30;3.70;;;21.40;95.50;;;;;;6167773;23;20424;-75
2021/07/19 10:07:37;;;;;;;5.40;4.67;;;21.60;95.40;;;;;;6168233;23;20463;-76
2021/07/19 10:10:09;;;;;;;6.00;4.33;;;21.60;95.30;;;;;;6167389;23;20411;-76
2021/07/19 10:12:37;;;;;;;5.17;4.20;;;21.60;95.30;;;;;;6131467;23;20785;-76
2021/07/19 10:15:10;;;;;;;8.10;4.53;;;21.60;95.20;;;;;;6167382;23;20777;-75
2021/07/19 10:17:51;;;;;;;6.60;4.70;;;21.50;95.10;;;;;;6131448;23;20415;-75
2021/07/19 10:20:19;;;;;;;5.93;4.40;;;21.50;95.10;;;;;;6157384;23;20460;-75
2021/07/19 10:22:48;;;;;;;6.67;4.50;;;21.40;95.10;;;;;;6157754;23;20412;-75
2021/07/19 10:25:17;;;;;;;5.10;4.20;;;21.30;95.00;;;;;;6131226;23;20471;-75
2021/07/19 10:27:46;;;;;;;7.83;5.10;;;21.20;95.00;;;;;;6131364;23;20998;-76
2021/07/19 10:30:16;;;;;;;5.90;4.43;;;21.00;94.90;;;;;;6167205;23;20814;-75
2021/07/19 10:32:44;;;;;;;5.33;4.83;;;21.00;95.00;;;;;;6157711;23;20480;-75
2021/07/19 10:35:13;;;;;;;5.93;4.50;;;20.90;95.10;;;;;;6167152;23;20401;-75
2021/07/19 10:37:53;;;;;;;5.13;4.37;;;20.80;95.10;;;;;;6167179;23;20484;-75
2021/07/19 10:40:28;;;;;;;4.77;4.27;;;20.80;95.20;;;;;;6167553;23;20416;-75
2021/07/19 10:43:05;;;;;;;7.22;4.80;;;20.80;95.30;;;;;;6131001;23;20447;-75
2021/07/19 10:45:45;;;;;;;8.90;5.13;;;20.80;95.20;;;;;;6131016;23;20178;-76
2021/07/19 10:48:32;;;;;;;7.80;4.70;;;20.90;95.30;;;;;;6157958;23;20432;-76
2021/07/19 10:51:02;;;;;;;6.80;4.80;;;20.90;95.30;;;;;;6167243;23;20452;-75
2021/07/19 10:53:33;;;;;;;6.00;4.70;;;21.00;95.40;;;;;;6129926;23;20503;-75
2021/07/19 10:56:04;;;;;;;5.40;4.60;;;21.30;95.30;;;;;;6167171;23;20149;-75
2021/07/19 10:58:39;;;;;;;5.63;4.50;;;21.30;95.10;;;;;;6167770;23;20381;-75
2021/07/19 11:01:21;;;;;;;11.10;6.90;;;21.40;95.10;;;;;;6131005;23;20989;-75
2021/07/19 11:03:50;;;;;;;6.13;5.30;;;21.40;95.10;;;;;;6167285;23;20765;-75
2021/07/19 11:06:30;;;;;;;6.60;4.90;;;21.30;95.10;;;;;;6165046;23;20460;-75
2021/07/19 11:08:58;;;;;;;8.20;5.07;;;21.30;95.20;;;;;;6130873;23;20443;-75
2021/07/19 11:11:28;;;;;;;6.80;5.50;;;21.30;95.30;;;;;;6167154;23;20421;-75
2021/07/19 11:13:58;;;;;;;6.27;5.13;;;21.30;95.40;;;;;;6156805;23;20404;-75
2021/07/19 11:16:38;;;;;;;6.07;4.97;;;21.20;95.30;;;;;;6166383;23;20401;-75
2021/07/19 11:19:07;;;;;;;8.50;5.10;;;21.20;95.30;;;;;;6130836;23;20472;-76
2021/07/19 11:21:35;;;;;;;6.80;5.43;;;21.20;95.40;;;;;;6157230;23;20444;-75
2021/07/19 11:24:13;;;;;;;6.50;5.27;;;21.10;95.30;;;;;;6130836;23;20448;-75
2021/07/19 11:26:54;;;;;;;7.83;4.60;;;21.00;95.20;;;;;;6132140;23;20515;-75
2021/07/19 11:29:30;;;;;;;5.13;4.63;;;21.00;95.20;;;;;;6131441;23;20424;-75
2021/07/19 11:32:11;;;;;;;6.80;6.20;;;21.00;95.20;;;;;;6157184;23;20475;-75
2021/07/19 11:34:40;;;;;;;5.90;4.70;;;20.90;95.20;;;;;;6166805;23;20385;-75
2021/07/19 11:37:09;;;;;;;7.20;5.60;;;20.80;95.20;;;;;;6165273;23;20476;-75
2021/07/19 11:39:48;;;;;;;8.80;5.00;;;20.90;94.90;;;;;;6166908;23;20165;-75
2021/07/19 11:42:28;;;;;;;7.33;5.43;;;20.90;95.00;;;;;;6130651;23;20496;-75
2021/07/19 11:45:07;;;;;;;10.00;4.90;;;20.90;95.00;;;;;;6129815;23;20850;-75
2021/07/19 11:47:41;;;;;;;6.43;5.10;;;20.90;94.90;;;;;;6130322;23;20181;-75
2021/07/19 11:50:11;;;;;;;5.87;5.20;;;20.90;95.00;;;;;;6130386;23;20443;-75
2021/07/19 11:52:40;;;;;;;8.00;5.50;;;20.80;95.00;;;;;;6130496;23;20467;-75
2021/07/19 11:55:10;;;;;;;6.63;4.50;;;20.70;95.00;;;;;;6130537;23;20415;-75
2021/07/19 11:57:44;;;;;;;6.57;5.60;;;20.70;95.20;;;;;;6130435;23;20409;-75
2021/07/19 12:00:14;;;;;;;9.43;6.00;;;20.60;95.30;;;;;;6166595;23;20455;-75
2021/07/19 12:02:44;;;;;;;7.07;5.23;;;20.50;95.50;;;;;;6130357;23;20486;-75
2021/07/19 12:05:16;;;;;;;6.90;5.20;;;20.50;95.60;;;;;;6130318;23;20471;-75
2021/07/19 12:07:44;;;;;;;6.73;5.60;;;20.50;95.70;;;;;;6166114;23;20444;-75
2021/07/19 12:10:15;;;;;;;7.80;6.00;;;20.40;95.80;;;;;;6166312;23;20500;-75
2021/07/19 12:12:43;;;;;;;8.43;7.03;;;20.40;95.80;;;;;;6166388;23;20381;-75
2021/07/19 12:15:17;;;;;;;6.23;5.60;;;20.50;96.00;;;;;;6166639;23;20440;-75
2021/07/19 12:17:47;;;;;;;6.63;5.93;;;20.50;96.00;;;;;;6156743;23;20401;-75
2021/07/19 12:20:15;;;;;;;5.80;5.20;;;20.40;96.20;;;;;;6130119;23;20516;-75
2021/07/19 12:22:43;;;;;;;6.87;6.17;;;20.40;96.00;;;;;;6166549;23;20401;-75
2021/07/19 12:25:11;;;;;;;5.87;5.27;;;20.40;96.00;;;;;;6130245;23;20942;-75
2021/07/19 12:27:39;;;;;;;8.17;6.70;;;20.30;96.10;;;;;;6130947;23;20527;-75
2021/07/19 12:30:09;;;;;;;6.20;5.47;;;20.30;96.10;;;;;;6129991;23;20519;-75
2021/07/19 12:32:40;;;;;;;8.10;5.50;;;20.20;96.10;;;;;;6166101;23;20439;-75
2021/07/19 12:35:11;;;;;;;7.00;5.97;;;20.20;96.20;;;;;;6130127;23;20444;-75
2021/07/19 12:37:39;;;;;;;6.50;5.87;;;20.20;96.20;;;;;;6166435;23;20893;-75
2021/07/19 12:40:09;;;;;;;7.90;6.10;;;20.20;96.10;;;;;;6128934;23;20504;-75
2021/07/19 12:42:37;;;;;;;8.30;6.00;;;20.30;95.80;;;;;;6130054;23;20173;-75
2021/07/19 12:45:06;;;;;;;6.67;6.07;;;20.30;95.80;;;;;;6166399;23;20403;-75
2021/07/19 12:47:35;;;;;;;9.33;6.27;;;20.30;95.90;;;;;;6129891;23;20447;-75
2021/07/19 12:50:05;;;;;;;7.88;6.05;;;20.30;96.00;;;;;;6129147;23;20447;-75
2021/07/19 12:52:37;;;;;;;6.43;5.40;;;20.30;96.00;;;;;;6166743;23;20200;-75
2021/07/19 12:55:24;;;;;;;8.37;5.97;;;20.30;96.10;;;;;;6129910;23;20816;-75
2021/07/19 12:57:54;;;;;;;8.53;6.17;;;20.30;96.20;;;;;;6129974;23;20452;-75
2021/07/19 13:00:24;;;;;;;10.80;6.30;;;20.30;96.40;;;;;;6156003;23;20460;-76
2021/07/19 13:03:04;;;;;;;10.67;6.27;;;20.20;96.20;;;;;;6166031;23;20408;-75
2021/07/19 13:05:33;;;;;;;9.07;6.00;;;20.20;96.20;;;;;;6165930;23;20385;-74
2021/07/19 13:08:04;;;;;;;5.80;5.20;;;20.10;96.20;;;;;;6165604;23;20443;-75
2021/07/19 13:10:33;;;;;;;6.80;5.47;;;20.20;96.30;;;;;;6156468;23;20429;-75